sensor_id;sensor_type;location;lat;lon;timestamp;P1;durP1;ratioP1;P2;durP2;ratioP2
12631;SDS011;6381;45.748;12.106;2023-08-30T00:00:06;3.25;;;2.15;;
12631;SDS011;6381;45.748;12.106;2023-08-30T00:02:36;3.28;;;1.95;;
12631;SDS011;6381;45.748;12.106;2023-08-30T00:05:04;2.20;;;1.98;;
12631;SDS011;6381;45.748;12.106;2023-08-30T00:07:33;2.75;;;1.90;;
12631;SDS011;6381;45.748;12.106;2023-08-30T00:10:02;2.60;;;1.70;;
12631;SDS011;6381;45.748;12.106;2023-08-30T00:12:32;4.57;;;1.92;;
12631;SDS011;6381;45.748;12.106;2023-08-30T00:15:01;2.58;;;2.00;;
12631;SDS011;6381;45.748;12.106;2023-08-30T00:17:31;2.90;;;2.03;;
12631;SDS011;6381;45.748;12.106;2023-08-30T00:20:00;4.13;;;1.90;;
12631;SDS011;6381;45.748;12.106;2023-08-30T00:22:29;3.25;;;1.83;;
12631;SDS011;6381;45.748;12.106;2023-08-30T00:24:58;2.88;;;2.00;;
12631;SDS011;6381;45.748;12.106;2023-08-30T00:27:29;2.78;;;1.90;;
12631;SDS011;6381;45.748;12.106;2023-08-30T00:29:57;2.45;;;1.92;;
12631;SDS011;6381;45.748;12.106;2023-08-30T00:32:26;3.30;;;1.83;;
12631;SDS011;6381;45.748;12.106;2023-08-30T00:34:57;2.50;;;1.98;;
12631;SDS011;6381;45.748;12.106;2023-08-30T00:37:26;3.63;;;1.77;;
12631;SDS011;6381;45.748;12.106;2023-08-30T00:39:54;2.38;;;1.90;;
12631;SDS011;6381;45.748;12.106;2023-08-30T00:42:23;2.92;;;1.80;;
12631;SDS011;6381;45.748;12.106;2023-08-30T00:44:53;2.78;;;1.88;;
12631;SDS011;6381;45.748;12.106;2023-08-30T00:47:21;4.07;;;1.83;;
12631;SDS011;6381;45.748;12.106;2023-08-30T00:49:50;2.60;;;1.95;;
12631;SDS011;6381;45.748;12.106;2023-08-30T00:52:21;4.18;;;2.20;;
12631;SDS011;6381;45.748;12.106;2023-08-30T00:54:49;2.92;;;1.90;;
12631;SDS011;6381;45.748;12.106;2023-08-30T00:57:18;2.22;;;1.90;;
12631;SDS011;6381;45.748;12.106;2023-08-30T00:59:47;2.88;;;2.10;;
12631;SDS011;6381;45.748;12.106;2023-08-30T01:02:20;5.40;;;2.10;;
12631;SDS011;6381;45.748;12.106;2023-08-30T01:04:49;4.43;;;2.00;;
12631;SDS011;6381;45.748;12.106;2023-08-30T01:07:18;4.75;;;2.05;;
12631;SDS011;6381;45.748;12.106;2023-08-30T01:09:48;3.10;;;1.90;;
12631;SDS011;6381;45.748;12.106;2023-08-30T01:12:20;4.90;;;2.20;;
12631;SDS011;6381;45.748;12.106;2023-08-30T01:14:52;2.55;;;2.10;;
12631;SDS011;6381;45.748;12.106;2023-08-30T01:17:25;4.40;;;2.08;;
12631;SDS011;6381;45.748;12.106;2023-08-30T01:19:58;5.65;;;2.25;;
12631;SDS011;6381;45.748;12.106;2023-08-30T01:22:33;5.85;;;2.08;;
12631;SDS011;6381;45.748;12.106;2023-08-30T01:25:17;2.90;;;2.00;;
12631;SDS011;6381;45.748;12.106;2023-08-30T01:27:55;5.15;;;2.30;;
12631;SDS011;6381;45.748;12.106;2023-08-30T01:30:25;5.35;;;2.35;;
12631;SDS011;6381;45.748;12.106;2023-08-30T01:32:56;4.07;;;2.45;;
12631;SDS011;6381;45.748;12.106;2023-08-30T01:35:26;3.70;;;2.10;;
12631;SDS011;6381;45.748;12.106;2023-08-30T01:37:59;3.22;;;2.20;;
12631;SDS011;6381;45.748;12.106;2023-08-30T01:40:30;3.65;;;2.45;;
12631;SDS011;6381;45.748;12.106;2023-08-30T01:43:04;5.15;;;2.30;;
12631;SDS011;6381;45.748;12.106;2023-08-30T01:45:35;3.38;;;2.40;;
12631;SDS011;6381;45.748;12.106;2023-08-30T01:48:07;4.43;;;2.30;;
12631;SDS011;6381;45.748;12.106;2023-08-30T01:50:42;3.13;;;2.25;;
12631;SDS011;6381;45.748;12.106;2023-08-30T01:53:12;4.28;;;2.45;;
12631;SDS011;6381;45.748;12.106;2023-08-30T01:55:42;4.00;;;2.55;;
12631;SDS011;6381;45.748;12.106;2023-08-30T01:58:12;4.43;;;2.50;;
12631;SDS011;6381;45.748;12.106;2023-08-30T02:00:41;3.00;;;2.53;;
12631;SDS011;6381;45.748;12.106;2023-08-30T02:03:09;3.75;;;2.20;;
12631;SDS011;6381;45.748;12.106;2023-08-30T02:05:41;2.92;;;1.98;;
12631;SDS011;6381;45.748;12.106;2023-08-30T02:08:16;2.42;;;1.98;;
12631;SDS011;6381;45.748;12.106;2023-08-30T02:10:48;3.42;;;1.90;;
12631;SDS011;6381;45.748;12.106;2023-08-30T02:13:26;2.85;;;2.00;;
12631;SDS011;6381;45.748;12.106;2023-08-30T02:15:56;2.67;;;1.60;;
12631;SDS011;6381;45.748;12.106;2023-08-30T02:18:29;3.67;;;1.92;;
12631;SDS011;6381;45.748;12.106;2023-08-30T02:21:00;4.22;;;2.13;;
12631;SDS011;6381;45.748;12.106;2023-08-30T02:23:29;2.35;;;1.85;;
12631;SDS011;6381;45.748;12.106;2023-08-30T02:25:59;4.10;;;2.10;;
12631;SDS011;6381;45.748;12.106;2023-08-30T02:28:31;3.33;;;1.98;;
12631;SDS011;6381;45.748;12.106;2023-08-30T02:30:59;4.70;;;2.65;;
12631;SDS011;6381;45.748;12.106;2023-08-30T02:33:28;4.43;;;2.50;;
12631;SDS011;6381;45.748;12.106;2023-08-30T02:35:57;3.75;;;2.30;;
12631;SDS011;6381;45.748;12.106;2023-08-30T02:38:26;4.85;;;2.30;;
12631;SDS011;6381;45.748;12.106;2023-08-30T02:40:54;4.28;;;2.50;;
12631;SDS011;6381;45.748;12.106;2023-08-30T02:43:23;3.05;;;2.00;;
12631;SDS011;6381;45.748;12.106;2023-08-30T02:45:53;3.33;;;2.55;;
12631;SDS011;6381;45.748;12.106;2023-08-30T02:48:23;3.38;;;2.35;;
12631;SDS011;6381;45.748;12.106;2023-08-30T02:50:51;2.53;;;2.33;;
12631;SDS011;6381;45.748;12.106;2023-08-30T02:53:20;5.30;;;2.45;;
12631;SDS011;6381;45.748;12.106;2023-08-30T02:55:49;3.78;;;2.42;;
12631;SDS011;6381;45.748;12.106;2023-08-30T02:58:18;3.60;;;2.10;;
12631;SDS011;6381;45.748;12.106;2023-08-30T03:00:47;5.47;;;2.28;;
12631;SDS011;6381;45.748;12.106;2023-08-30T03:03:17;5.53;;;2.10;;
12631;SDS011;6381;45.748;12.106;2023-08-30T03:05:46;3.50;;;2.08;;
12631;SDS011;6381;45.748;12.106;2023-08-30T03:08:16;2.88;;;1.80;;
12631;SDS011;6381;45.748;12.106;2023-08-30T03:10:45;3.25;;;1.83;;
12631;SDS011;6381;45.748;12.106;2023-08-30T03:13:14;3.10;;;1.90;;
12631;SDS011;6381;45.748;12.106;2023-08-30T03:15:43;2.47;;;1.92;;
12631;SDS011;6381;45.748;12.106;2023-08-30T03:18:12;2.78;;;1.90;;
12631;SDS011;6381;45.748;12.106;2023-08-30T03:20:42;2.42;;;1.63;;
12631;SDS011;6381;45.748;12.106;2023-08-30T03:23:12;3.25;;;1.90;;
12631;SDS011;6381;45.748;12.106;2023-08-30T03:25:41;2.20;;;1.60;;
12631;SDS011;6381;45.748;12.106;2023-08-30T03:28:09;2.85;;;1.60;;
12631;SDS011;6381;45.748;12.106;2023-08-30T03:30:38;4.10;;;1.75;;
12631;SDS011;6381;45.748;12.106;2023-08-30T03:33:07;2.03;;;1.40;;
12631;SDS011;6381;45.748;12.106;2023-08-30T03:35:39;2.33;;;1.40;;
12631;SDS011;6381;45.748;12.106;2023-08-30T03:38:11;2.40;;;1.70;;
12631;SDS011;6381;45.748;12.106;2023-08-30T03:40:40;2.47;;;1.52;;
12631;SDS011;6381;45.748;12.106;2023-08-30T03:43:09;2.35;;;1.67;;
12631;SDS011;6381;45.748;12.106;2023-08-30T03:45:37;3.35;;;1.48;;
12631;SDS011;6381;45.748;12.106;2023-08-30T03:48:06;2.22;;;1.60;;
12631;SDS011;6381;45.748;12.106;2023-08-30T03:50:35;1.50;;;1.40;;
12631;SDS011;6381;45.748;12.106;2023-08-30T03:53:06;2.03;;;1.23;;
12631;SDS011;6381;45.748;12.106;2023-08-30T03:55:36;1.67;;;1.58;;
12631;SDS011;6381;45.748;12.106;2023-08-30T03:58:05;1.50;;;1.40;;
12631;SDS011;6381;45.748;12.106;2023-08-30T04:00:35;2.13;;;1.42;;
12631;SDS011;6381;45.748;12.106;2023-08-30T04:03:04;2.25;;;1.50;;
12631;SDS011;6381;45.748;12.106;2023-08-30T04:05:35;2.88;;;1.40;;
12631;SDS011;6381;45.748;12.106;2023-08-30T04:08:05;3.17;;;1.50;;
12631;SDS011;6381;45.748;12.106;2023-08-30T04:10:36;1.98;;;1.42;;
12631;SDS011;6381;45.748;12.106;2023-08-30T04:13:07;2.20;;;1.50;;
12631;SDS011;6381;45.748;12.106;2023-08-30T04:15:38;2.10;;;1.30;;
12631;SDS011;6381;45.748;12.106;2023-08-30T04:18:08;2.47;;;1.38;;
12631;SDS011;6381;45.748;12.106;2023-08-30T04:20:43;2.53;;;1.60;;
12631;SDS011;6381;45.748;12.106;2023-08-30T04:23:12;4.88;;;1.45;;
12631;SDS011;6381;45.748;12.106;2023-08-30T04:25:45;2.50;;;1.75;;
12631;SDS011;6381;45.748;12.106;2023-08-30T04:28:14;1.20;;;1.00;;
12631;SDS011;6381;45.748;12.106;2023-08-30T04:30:44;1.95;;;1.20;;
12631;SDS011;6381;45.748;12.106;2023-08-30T04:33:13;2.00;;;1.38;;
12631;SDS011;6381;45.748;12.106;2023-08-30T04:35:42;2.88;;;1.52;;
12631;SDS011;6381;45.748;12.106;2023-08-30T04:38:11;2.20;;;1.30;;
12631;SDS011;6381;45.748;12.106;2023-08-30T04:40:40;1.85;;;1.50;;
12631;SDS011;6381;45.748;12.106;2023-08-30T04:43:14;1.45;;;1.25;;
12631;SDS011;6381;45.748;12.106;2023-08-30T04:45:42;1.52;;;1.38;;
12631;SDS011;6381;45.748;12.106;2023-08-30T04:48:15;3.63;;;1.45;;
12631;SDS011;6381;45.748;12.106;2023-08-30T04:50:44;1.23;;;1.02;;
12631;SDS011;6381;45.748;12.106;2023-08-30T04:53:12;3.85;;;1.20;;
12631;SDS011;6381;45.748;12.106;2023-08-30T04:55:41;1.90;;;1.50;;
12631;SDS011;6381;45.748;12.106;2023-08-30T04:58:11;1.88;;;1.30;;
12631;SDS011;6381;45.748;12.106;2023-08-30T05:00:41;1.33;;;1.23;;
12631;SDS011;6381;45.748;12.106;2023-08-30T05:03:10;3.05;;;1.50;;
12631;SDS011;6381;45.748;12.106;2023-08-30T05:05:40;1.60;;;1.42;;
12631;SDS011;6381;45.748;12.106;2023-08-30T05:08:16;1.52;;;1.40;;
12631;SDS011;6381;45.748;12.106;2023-08-30T05:10:47;1.67;;;1.58;;
12631;SDS011;6381;45.748;12.106;2023-08-30T05:13:17;2.92;;;1.55;;
12631;SDS011;6381;45.748;12.106;2023-08-30T05:15:47;2.95;;;1.73;;
12631;SDS011;6381;45.748;12.106;2023-08-30T05:18:18;3.40;;;1.83;;
12631;SDS011;6381;45.748;12.106;2023-08-30T05:20:47;2.60;;;1.80;;
12631;SDS011;6381;45.748;12.106;2023-08-30T05:23:16;3.78;;;1.67;;
12631;SDS011;6381;45.748;12.106;2023-08-30T05:25:44;2.63;;;1.70;;
12631;SDS011;6381;45.748;12.106;2023-08-30T05:28:14;1.90;;;1.70;;
12631;SDS011;6381;45.748;12.106;2023-08-30T05:30:43;1.80;;;1.52;;
12631;SDS011;6381;45.748;12.106;2023-08-30T05:33:25;2.55;;;1.67;;
12631;SDS011;6381;45.748;12.106;2023-08-30T05:36:27;1.70;;;1.50;;
12631;SDS011;6381;45.748;12.106;2023-08-30T05:39:02;2.72;;;1.48;;
12631;SDS011;6381;45.748;12.106;2023-08-30T05:41:43;2.33;;;1.50;;
12631;SDS011;6381;45.748;12.106;2023-08-30T05:44:14;2.17;;;1.60;;
12631;SDS011;6381;45.748;12.106;2023-08-30T05:46:44;1.70;;;1.50;;
12631;SDS011;6381;45.748;12.106;2023-08-30T05:49:15;1.60;;;1.42;;
12631;SDS011;6381;45.748;12.106;2023-08-30T05:51:44;2.60;;;1.63;;
12631;SDS011;6381;45.748;12.106;2023-08-30T05:54:14;1.70;;;1.58;;
12631;SDS011;6381;45.748;12.106;2023-08-30T05:56:43;2.28;;;1.52;;
12631;SDS011;6381;45.748;12.106;2023-08-30T05:59:11;2.38;;;1.70;;
12631;SDS011;6381;45.748;12.106;2023-08-30T06:01:43;1.50;;;1.40;;
12631;SDS011;6381;45.748;12.106;2023-08-30T06:04:12;2.72;;;1.60;;
12631;SDS011;6381;45.748;12.106;2023-08-30T06:06:43;2.25;;;1.70;;
12631;SDS011;6381;45.748;12.106;2023-08-30T06:09:11;2.15;;;1.58;;
12631;SDS011;6381;45.748;12.106;2023-08-30T06:11:40;1.92;;;1.70;;
12631;SDS011;6381;45.748;12.106;2023-08-30T06:14:09;2.20;;;1.40;;
12631;SDS011;6381;45.748;12.106;2023-08-30T06:16:38;3.50;;;1.58;;
12631;SDS011;6381;45.748;12.106;2023-08-30T06:19:10;1.83;;;1.60;;
12631;SDS011;6381;45.748;12.106;2023-08-30T06:21:40;3.13;;;1.65;;
12631;SDS011;6381;45.748;12.106;2023-08-30T06:24:09;1.60;;;1.40;;
12631;SDS011;6381;45.748;12.106;2023-08-30T06:26:38;1.77;;;1.50;;
12631;SDS011;6381;45.748;12.106;2023-08-30T06:29:07;3.80;;;1.60;;
12631;SDS011;6381;45.748;12.106;2023-08-30T06:31:35;3.22;;;1.50;;
12631;SDS011;6381;45.748;12.106;2023-08-30T06:34:06;2.05;;;1.63;;
12631;SDS011;6381;45.748;12.106;2023-08-30T06:36:34;1.60;;;1.50;;
12631;SDS011;6381;45.748;12.106;2023-08-30T06:39:05;2.17;;;1.42;;
12631;SDS011;6381;45.748;12.106;2023-08-30T06:41:34;1.63;;;1.50;;
12631;SDS011;6381;45.748;12.106;2023-08-30T06:44:03;4.35;;;3.13;;
12631;SDS011;6381;45.748;12.106;2023-08-30T06:46:32;4.13;;;3.15;;
12631;SDS011;6381;45.748;12.106;2023-08-30T06:49:00;2.58;;;2.10;;
12631;SDS011;6381;45.748;12.106;2023-08-30T06:51:29;2.30;;;1.90;;
12631;SDS011;6381;45.748;12.106;2023-08-30T06:53:58;2.65;;;1.80;;
12631;SDS011;6381;45.748;12.106;2023-08-30T06:56:28;3.58;;;2.75;;
12631;SDS011;6381;45.748;12.106;2023-08-30T06:58:57;3.15;;;2.20;;
12631;SDS011;6381;45.748;12.106;2023-08-30T07:01:26;3.13;;;1.98;;
12631;SDS011;6381;45.748;12.106;2023-08-30T07:03:55;6.20;;;2.03;;
12631;SDS011;6381;45.748;12.106;2023-08-30T07:06:24;2.95;;;1.67;;
12631;SDS011;6381;45.748;12.106;2023-08-30T07:08:56;1.73;;;1.27;;
12631;SDS011;6381;45.748;12.106;2023-08-30T07:11:25;1.95;;;1.70;;
12631;SDS011;6381;45.748;12.106;2023-08-30T07:14:01;2.63;;;2.05;;
12631;SDS011;6381;45.748;12.106;2023-08-30T07:16:30;1.98;;;1.67;;
12631;SDS011;6381;45.748;12.106;2023-08-30T07:18:59;2.38;;;1.55;;
12631;SDS011;6381;45.748;12.106;2023-08-30T07:21:28;3.67;;;1.98;;
12631;SDS011;6381;45.748;12.106;2023-08-30T07:23:57;3.08;;;1.70;;
12631;SDS011;6381;45.748;12.106;2023-08-30T07:26:26;4.38;;;1.70;;
12631;SDS011;6381;45.748;12.106;2023-08-30T07:28:55;1.98;;;1.77;;
12631;SDS011;6381;45.748;12.106;2023-08-30T07:31:25;3.03;;;1.60;;
12631;SDS011;6381;45.748;12.106;2023-08-30T07:33:54;1.90;;;1.40;;
12631;SDS011;6381;45.748;12.106;2023-08-30T07:36:24;3.05;;;1.40;;
12631;SDS011;6381;45.748;12.106;2023-08-30T07:39:07;1.55;;;1.33;;
12631;SDS011;6381;45.748;12.106;2023-08-30T07:41:36;2.83;;;1.63;;
12631;SDS011;6381;45.748;12.106;2023-08-30T07:44:04;4.82;;;2.80;;
12631;SDS011;6381;45.748;12.106;2023-08-30T07:46:35;3.47;;;1.73;;
12631;SDS011;6381;45.748;12.106;2023-08-30T07:49:03;1.98;;;1.48;;
12631;SDS011;6381;45.748;12.106;2023-08-30T07:51:32;4.55;;;1.98;;
12631;SDS011;6381;45.748;12.106;2023-08-30T07:54:01;2.83;;;1.80;;
12631;SDS011;6381;45.748;12.106;2023-08-30T07:56:31;2.42;;;1.90;;
12631;SDS011;6381;45.748;12.106;2023-08-30T07:59:00;3.05;;;2.42;;
12631;SDS011;6381;45.748;12.106;2023-08-30T08:01:29;2.45;;;2.00;;
12631;SDS011;6381;45.748;12.106;2023-08-30T08:03:59;2.28;;;2.08;;
12631;SDS011;6381;45.748;12.106;2023-08-30T08:06:33;2.03;;;1.80;;
12631;SDS011;6381;45.748;12.106;2023-08-30T08:09:04;2.60;;;1.80;;
12631;SDS011;6381;45.748;12.106;2023-08-30T08:11:34;4.75;;;2.13;;
12631;SDS011;6381;45.748;12.106;2023-08-30T08:14:03;2.63;;;2.08;;
12631;SDS011;6381;45.748;12.106;2023-08-30T08:16:32;2.28;;;1.60;;
12631;SDS011;6381;45.748;12.106;2023-08-30T08:19:03;4.43;;;1.92;;
12631;SDS011;6381;45.748;12.106;2023-08-30T08:21:33;2.15;;;1.75;;
12631;SDS011;6381;45.748;12.106;2023-08-30T08:24:01;2.70;;;1.80;;
12631;SDS011;6381;45.748;12.106;2023-08-30T08:26:30;2.50;;;1.50;;
12631;SDS011;6381;45.748;12.106;2023-08-30T08:28:59;2.60;;;1.58;;
12631;SDS011;6381;45.748;12.106;2023-08-30T08:31:29;2.78;;;2.10;;
12631;SDS011;6381;45.748;12.106;2023-08-30T08:34:09;2.15;;;1.75;;
12631;SDS011;6381;45.748;12.106;2023-08-30T08:36:40;3.70;;;1.80;;
12631;SDS011;6381;45.748;12.106;2023-08-30T08:39:10;2.00;;;1.70;;
12631;SDS011;6381;45.748;12.106;2023-08-30T08:41:41;2.88;;;1.80;;
12631;SDS011;6381;45.748;12.106;2023-08-30T08:44:11;2.33;;;1.80;;
12631;SDS011;6381;45.748;12.106;2023-08-30T08:46:41;2.85;;;1.80;;
12631;SDS011;6381;45.748;12.106;2023-08-30T08:49:13;2.40;;;1.90;;
12631;SDS011;6381;45.748;12.106;2023-08-30T08:51:43;2.58;;;1.60;;
12631;SDS011;6381;45.748;12.106;2023-08-30T08:54:12;2.50;;;1.67;;
12631;SDS011;6381;45.748;12.106;2023-08-30T08:56:41;3.67;;;1.50;;
12631;SDS011;6381;45.748;12.106;2023-08-30T08:59:11;3.72;;;1.67;;
12631;SDS011;6381;45.748;12.106;2023-08-30T09:01:40;1.90;;;1.40;;
12631;SDS011;6381;45.748;12.106;2023-08-30T09:04:10;3.22;;;1.50;;
12631;SDS011;6381;45.748;12.106;2023-08-30T09:06:40;1.80;;;1.40;;
12631;SDS011;6381;45.748;12.106;2023-08-30T09:09:10;1.55;;;1.40;;
12631;SDS011;6381;45.748;12.106;2023-08-30T09:11:39;1.52;;;1.27;;
12631;SDS011;6381;45.748;12.106;2023-08-30T09:14:11;1.20;;;1.10;;
12631;SDS011;6381;45.748;12.106;2023-08-30T09:16:40;2.00;;;1.23;;
12631;SDS011;6381;45.748;12.106;2023-08-30T09:19:09;2.03;;;1.00;;
12631;SDS011;6381;45.748;12.106;2023-08-30T09:21:39;2.42;;;1.20;;
12631;SDS011;6381;45.748;12.106;2023-08-30T09:24:24;0.80;;;0.80;;
12631;SDS011;6381;45.748;12.106;2023-08-30T09:27:50;0.95;;;0.90;;
12631;SDS011;6381;45.748;12.106;2023-08-30T09:30:21;1.10;;;1.00;;
12631;SDS011;6381;45.748;12.106;2023-08-30T09:32:50;1.10;;;1.00;;
12631;SDS011;6381;45.748;12.106;2023-08-30T09:35:19;1.40;;;1.20;;
12631;SDS011;6381;45.748;12.106;2023-08-30T09:37:50;3.03;;;1.10;;
12631;SDS011;6381;45.748;12.106;2023-08-30T09:40:19;1.85;;;1.17;;
12631;SDS011;6381;45.748;12.106;2023-08-30T09:42:49;1.15;;;1.00;;
12631;SDS011;6381;45.748;12.106;2023-08-30T09:45:38;4.65;;;1.20;;
12631;SDS011;6381;45.748;12.106;2023-08-30T09:48:08;1.00;;;0.90;;
12631;SDS011;6381;45.748;12.106;2023-08-30T09:50:36;1.48;;;1.17;;
12631;SDS011;6381;45.748;12.106;2023-08-30T09:53:08;2.58;;;1.40;;
12631;SDS011;6381;45.748;12.106;2023-08-30T09:55:38;1.50;;;0.95;;
12631;SDS011;6381;45.748;12.106;2023-08-30T09:58:09;1.30;;;1.20;;
12631;SDS011;6381;45.748;12.106;2023-08-30T10:00:41;2.40;;;1.00;;
12631;SDS011;6381;45.748;12.106;2023-08-30T10:03:11;1.20;;;1.10;;
12631;SDS011;6381;45.748;12.106;2023-08-30T10:05:57;1.88;;;1.10;;
12631;SDS011;6381;45.748;12.106;2023-08-30T10:08:30;2.67;;;1.10;;
12631;SDS011;6381;45.748;12.106;2023-08-30T10:11:00;2.20;;;1.30;;
12631;SDS011;6381;45.748;12.106;2023-08-30T10:13:29;0.82;;;0.70;;
12631;SDS011;6381;45.748;12.106;2023-08-30T10:16:00;0.73;;;0.68;;
12631;SDS011;6381;45.748;12.106;2023-08-30T10:18:32;0.90;;;0.73;;
12631;SDS011;6381;45.748;12.106;2023-08-30T10:21:09;0.63;;;0.63;;
12631;SDS011;6381;45.748;12.106;2023-08-30T10:23:42;0.50;;;0.50;;
12631;SDS011;6381;45.748;12.106;2023-08-30T10:26:13;0.60;;;0.60;;
12631;SDS011;6381;45.748;12.106;2023-08-30T10:28:43;0.82;;;0.47;;
12631;SDS011;6381;45.748;12.106;2023-08-30T10:31:13;1.38;;;0.60;;
12631;SDS011;6381;45.748;12.106;2023-08-30T10:33:48;0.40;;;0.40;;
12631;SDS011;6381;45.748;12.106;2023-08-30T10:36:20;1.85;;;0.50;;
12631;SDS011;6381;45.748;12.106;2023-08-30T10:38:52;0.63;;;0.60;;
12631;SDS011;6381;45.748;12.106;2023-08-30T10:41:22;0.60;;;0.60;;
12631;SDS011;6381;45.748;12.106;2023-08-30T10:43:52;0.80;;;0.65;;
12631;SDS011;6381;45.748;12.106;2023-08-30T10:46:31;0.43;;;0.43;;
12631;SDS011;6381;45.748;12.106;2023-08-30T10:49:10;0.45;;;0.40;;
12631;SDS011;6381;45.748;12.106;2023-08-30T10:51:41;0.60;;;0.60;;
12631;SDS011;6381;45.748;12.106;2023-08-30T10:54:12;0.65;;;0.57;;
12631;SDS011;6381;45.748;12.106;2023-08-30T10:56:46;0.40;;;0.40;;
12631;SDS011;6381;45.748;12.106;2023-08-30T10:59:17;0.60;;;0.60;;
12631;SDS011;6381;45.748;12.106;2023-08-30T11:01:47;0.63;;;0.63;;
12631;SDS011;6381;45.748;12.106;2023-08-30T11:04:18;1.20;;;0.80;;
12631;SDS011;6381;45.748;12.106;2023-08-30T11:06:49;0.50;;;0.50;;
12631;SDS011;6381;45.748;12.106;2023-08-30T11:09:23;0.50;;;0.50;;
12631;SDS011;6381;45.748;12.106;2023-08-30T11:11:53;0.80;;;0.80;;
12631;SDS011;6381;45.748;12.106;2023-08-30T11:14:22;1.73;;;0.85;;
12631;SDS011;6381;45.748;12.106;2023-08-30T11:16:51;1.50;;;0.73;;
12631;SDS011;6381;45.748;12.106;2023-08-30T11:19:19;1.77;;;0.88;;
12631;SDS011;6381;45.748;12.106;2023-08-30T11:21:49;1.20;;;0.82;;
12631;SDS011;6381;45.748;12.106;2023-08-30T11:24:17;0.68;;;0.68;;
12631;SDS011;6381;45.748;12.106;2023-08-30T11:26:48;0.80;;;0.70;;
12631;SDS011;6381;45.748;12.106;2023-08-30T11:29:22;1.50;;;0.60;;
12631;SDS011;6381;45.748;12.106;2023-08-30T11:31:55;0.70;;;0.70;;
12631;SDS011;6381;45.748;12.106;2023-08-30T11:34:23;0.70;;;0.70;;
12631;SDS011;6381;45.748;12.106;2023-08-30T11:36:52;1.90;;;0.80;;
12631;SDS011;6381;45.748;12.106;2023-08-30T11:39:21;0.90;;;0.90;;
12631;SDS011;6381;45.748;12.106;2023-08-30T11:41:52;2.83;;;0.70;;
12631;SDS011;6381;45.748;12.106;2023-08-30T11:44:23;1.05;;;0.90;;
12631;SDS011;6381;45.748;12.106;2023-08-30T11:46:57;2.65;;;0.68;;
12631;SDS011;6381;45.748;12.106;2023-08-30T11:49:27;0.82;;;0.80;;
12631;SDS011;6381;45.748;12.106;2023-08-30T11:51:56;0.60;;;0.60;;
12631;SDS011;6381;45.748;12.106;2023-08-30T11:54:25;0.95;;;0.70;;
12631;SDS011;6381;45.748;12.106;2023-08-30T11:56:56;0.50;;;0.50;;
12631;SDS011;6381;45.748;12.106;2023-08-30T11:59:25;0.80;;;0.80;;
12631;SDS011;6381;45.748;12.106;2023-08-30T12:01:54;1.02;;;0.65;;
12631;SDS011;6381;45.748;12.106;2023-08-30T12:04:23;0.90;;;0.70;;
12631;SDS011;6381;45.748;12.106;2023-08-30T12:06:51;0.85;;;0.73;;
12631;SDS011;6381;45.748;12.106;2023-08-30T12:09:21;0.93;;;0.70;;
12631;SDS011;6381;45.748;12.106;2023-08-30T12:11:49;2.25;;;0.98;;
12631;SDS011;6381;45.748;12.106;2023-08-30T12:14:20;1.92;;;1.02;;
12631;SDS011;6381;45.748;12.106;2023-08-30T12:16:53;3.28;;;0.90;;
12631;SDS011;6381;45.748;12.106;2023-08-30T12:19:21;1.40;;;0.90;;
12631;SDS011;6381;45.748;12.106;2023-08-30T12:21:55;2.13;;;0.77;;
12631;SDS011;6381;45.748;12.106;2023-08-30T12:24:40;1.67;;;1.10;;
12631;SDS011;6381;45.748;12.106;2023-08-30T12:27:09;2.17;;;1.02;;
12631;SDS011;6381;45.748;12.106;2023-08-30T12:29:40;1.17;;;0.90;;
12631;SDS011;6381;45.748;12.106;2023-08-30T12:32:08;3.38;;;1.30;;
12631;SDS011;6381;45.748;12.106;2023-08-30T12:34:37;4.88;;;1.00;;
12631;SDS011;6381;45.748;12.106;2023-08-30T12:37:06;1.90;;;0.90;;
12631;SDS011;6381;45.748;12.106;2023-08-30T12:39:35;2.00;;;0.90;;
12631;SDS011;6381;45.748;12.106;2023-08-30T12:42:04;1.35;;;0.70;;
12631;SDS011;6381;45.748;12.106;2023-08-30T12:44:36;1.48;;;0.80;;
12631;SDS011;6381;45.748;12.106;2023-08-30T12:47:06;1.25;;;0.68;;
12631;SDS011;6381;45.748;12.106;2023-08-30T12:49:35;0.88;;;0.75;;
12631;SDS011;6381;45.748;12.106;2023-08-30T12:52:04;3.90;;;0.60;;
12631;SDS011;6381;45.748;12.106;2023-08-30T12:54:33;0.73;;;0.63;;
12631;SDS011;6381;45.748;12.106;2023-08-30T12:57:02;0.40;;;0.40;;
12631;SDS011;6381;45.748;12.106;2023-08-30T12:59:31;1.23;;;0.70;;
12631;SDS011;6381;45.748;12.106;2023-08-30T13:02:00;1.98;;;0.60;;
12631;SDS011;6381;45.748;12.106;2023-08-30T13:04:30;1.40;;;0.40;;
12631;SDS011;6381;45.748;12.106;2023-08-30T13:06:59;0.32;;;0.32;;
12631;SDS011;6381;45.748;12.106;2023-08-30T13:09:28;0.50;;;0.50;;
12631;SDS011;6381;45.748;12.106;2023-08-30T13:11:57;0.90;;;0.57;;
12631;SDS011;6381;45.748;12.106;2023-08-30T13:14:26;0.60;;;0.50;;
12631;SDS011;6381;45.748;12.106;2023-08-30T13:16:54;1.00;;;0.55;;
12631;SDS011;6381;45.748;12.106;2023-08-30T13:19:23;0.50;;;0.50;;
12631;SDS011;6381;45.748;12.106;2023-08-30T13:21:53;0.47;;;0.43;;
12631;SDS011;6381;45.748;12.106;2023-08-30T13:24:22;0.50;;;0.50;;
12631;SDS011;6381;45.748;12.106;2023-08-30T13:26:51;1.38;;;0.55;;
12631;SDS011;6381;45.748;12.106;2023-08-30T13:29:20;0.65;;;0.60;;
12631;SDS011;6381;45.748;12.106;2023-08-30T13:31:48;0.57;;;0.57;;
12631;SDS011;6381;45.748;12.106;2023-08-30T13:34:17;0.50;;;0.50;;
12631;SDS011;6381;45.748;12.106;2023-08-30T13:36:46;0.60;;;0.60;;
12631;SDS011;6381;45.748;12.106;2023-08-30T13:39:16;1.15;;;0.60;;
12631;SDS011;6381;45.748;12.106;2023-08-30T13:41:47;0.32;;;0.32;;
12631;SDS011;6381;45.748;12.106;2023-08-30T13:44:16;0.40;;;0.40;;
12631;SDS011;6381;45.748;12.106;2023-08-30T13:46:44;0.30;;;0.30;;
12631;SDS011;6381;45.748;12.106;2023-08-30T13:49:15;1.90;;;0.50;;
12631;SDS011;6381;45.748;12.106;2023-08-30T13:51:44;0.30;;;0.30;;
12631;SDS011;6381;45.748;12.106;2023-08-30T13:54:13;0.45;;;0.45;;
12631;SDS011;6381;45.748;12.106;2023-08-30T13:56:43;0.30;;;0.20;;
12631;SDS011;6381;45.748;12.106;2023-08-30T13:59:12;2.42;;;0.70;;
12631;SDS011;6381;45.748;12.106;2023-08-30T14:01:41;0.85;;;0.50;;
12631;SDS011;6381;45.748;12.106;2023-08-30T14:04:10;0.57;;;0.50;;
12631;SDS011;6381;45.748;12.106;2023-08-30T14:06:39;0.30;;;0.30;;
12631;SDS011;6381;45.748;12.106;2023-08-30T14:09:07;0.88;;;0.47;;
12631;SDS011;6381;45.748;12.106;2023-08-30T14:11:36;0.30;;;0.22;;
12631;SDS011;6381;45.748;12.106;2023-08-30T14:14:07;0.40;;;0.40;;
12631;SDS011;6381;45.748;12.106;2023-08-30T14:16:36;0.52;;;0.45;;
12631;SDS011;6381;45.748;12.106;2023-08-30T14:19:05;0.80;;;0.50;;
12631;SDS011;6381;45.748;12.106;2023-08-30T14:21:34;0.82;;;0.40;;
12631;SDS011;6381;45.748;12.106;2023-08-30T14:24:03;2.25;;;0.52;;
12631;SDS011;6381;45.748;12.106;2023-08-30T14:26:32;0.50;;;0.40;;
12631;SDS011;6381;45.748;12.106;2023-08-30T14:29:01;0.38;;;0.32;;
12631;SDS011;6381;45.748;12.106;2023-08-30T14:31:31;1.08;;;0.45;;
12631;SDS011;6381;45.748;12.106;2023-08-30T14:34:00;2.67;;;0.70;;
12631;SDS011;6381;45.748;12.106;2023-08-30T14:36:29;0.35;;;0.35;;
12631;SDS011;6381;45.748;12.106;2023-08-30T14:38:58;0.50;;;0.30;;
12631;SDS011;6381;45.748;12.106;2023-08-30T14:41:27;0.93;;;0.60;;
12631;SDS011;6381;45.748;12.106;2023-08-30T14:43:56;0.40;;;0.40;;
12631;SDS011;6381;45.748;12.106;2023-08-30T14:46:24;2.20;;;0.65;;
12631;SDS011;6381;45.748;12.106;2023-08-30T14:48:54;0.28;;;0.28;;
12631;SDS011;6381;45.748;12.106;2023-08-30T14:51:23;0.40;;;0.40;;
12631;SDS011;6381;45.748;12.106;2023-08-30T14:53:52;1.65;;;0.47;;
12631;SDS011;6381;45.748;12.106;2023-08-30T14:56:21;0.40;;;0.38;;
12631;SDS011;6381;45.748;12.106;2023-08-30T14:58:50;0.50;;;0.40;;
12631;SDS011;6381;45.748;12.106;2023-08-30T15:01:19;0.52;;;0.30;;
12631;SDS011;6381;45.748;12.106;2023-08-30T15:03:48;0.38;;;0.38;;
12631;SDS011;6381;45.748;12.106;2023-08-30T15:06:18;0.22;;;0.22;;